sensor_id;sensor_type;location;lat;lon;timestamp;temperature;humidity
36670;DHT22;22662;47.412;9.742;2022-07-09T00:00:43;15.80;99.90
36670;DHT22;22662;47.412;9.742;2022-07-09T00:03:09;15.80;99.90
36670;DHT22;22662;47.412;9.742;2022-07-09T00:05:35;15.70;99.90
36670;DHT22;22662;47.412;9.742;2022-07-09T00:08:01;15.60;99.90
36670;DHT22;22662;47.412;9.742;2022-07-09T00:10:26;15.70;99.90
36670;DHT22;22662;47.412;9.742;2022-07-09T00:12:52;15.80;99.90
36670;DHT22;22662;47.412;9.742;2022-07-09T00:15:18;15.80;99.90
36670;DHT22;22662;47.412;9.742;2022-07-09T00:17:44;15.80;99.90
36670;DHT22;22662;47.412;9.742;2022-07-09T00:20:10;15.80;99.90
36670;DHT22;22662;47.412;9.742;2022-07-09T00:22:35;15.80;99.90
36670;DHT22;22662;47.412;9.742;2022-07-09T00:25:02;15.80;99.90
36670;DHT22;22662;47.412;9.742;2022-07-09T00:27:27;15.90;99.90
36670;DHT22;22662;47.412;9.742;2022-07-09T00:29:53;15.80;99.90
36670;DHT22;22662;47.412;9.742;2022-07-09T00:32:19;15.70;99.90
36670;DHT22;22662;47.412;9.742;2022-07-09T00:34:45;15.70;99.90
36670;DHT22;22662;47.412;9.742;2022-07-09T00:37:11;15.70;99.90
36670;DHT22;22662;47.412;9.742;2022-07-09T00:39:37;15.70;99.90
36670;DHT22;22662;47.412;9.742;2022-07-09T00:42:08;15.70;99.90
36670;DHT22;22662;47.412;9.742;2022-07-09T00:44:35;15.60;99.90
36670;DHT22;22662;47.412;9.742;2022-07-09T00:47:02;15.70;99.90
36670;DHT22;22662;47.412;9.742;2022-07-09T00:49:30;15.60;99.90
36670;DHT22;22662;47.412;9.742;2022-07-09T00:51:57;15.60;99.90
36670;DHT22;22662;47.412;9.742;2022-07-09T00:54:24;15.70;99.90
36670;DHT22;22662;47.412;9.742;2022-07-09T00:56:52;15.60;99.90
36670;DHT22;22662;47.412;9.742;2022-07-09T00:59:18;15.60;99.90
36670;DHT22;22662;47.412;9.742;2022-07-09T01:01:45;15.60;99.90
36670;DHT22;22662;47.412;9.742;2022-07-09T01:04:11;15.50;99.90
36670;DHT22;22662;47.412;9.742;2022-07-09T01:06:37;15.60;99.90
36670;DHT22;22662;47.412;9.742;2022-07-09T01:09:03;15.60;99.90
36670;DHT22;22662;47.412;9.742;2022-07-09T01:11:30;15.60;99.90
36670;DHT22;22662;47.412;9.742;2022-07-09T01:13:55;15.50;99.90
36670;DHT22;22662;47.412;9.742;2022-07-09T01:16:21;15.50;99.90
36670;DHT22;22662;47.412;9.742;2022-07-09T01:18:49;15.40;99.90
36670;DHT22;22662;47.412;9.742;2022-07-09T01:21:15;15.40;99.90
36670;DHT22;22662;47.412;9.742;2022-07-09T01:23:41;15.40;99.90
36670;DHT22;22662;47.412;9.742;2022-07-09T01:26:07;15.30;99.90
36670;DHT22;22662;47.412;9.742;2022-07-09T01:28:33;15.30;99.90
36670;DHT22;22662;47.412;9.742;2022-07-09T01:30:59;15.30;99.90
36670;DHT22;22662;47.412;9.742;2022-07-09T01:33:27;15.30;99.90
36670;DHT22;22662;47.412;9.742;2022-07-09T01:35:53;15.20;99.90
36670;DHT22;22662;47.412;9.742;2022-07-09T01:38:19;15.30;99.90
36670;DHT22;22662;47.412;9.742;2022-07-09T01:40:44;15.30;99.90
36670;DHT22;22662;47.412;9.742;2022-07-09T01:43:10;15.30;99.90
36670;DHT22;22662;47.412;9.742;2022-07-09T01:45:36;15.30;99.90
36670;DHT22;22662;47.412;9.742;2022-07-09T01:48:02;15.30;99.90
36670;DHT22;22662;47.412;9.742;2022-07-09T01:50:28;15.30;99.90
36670;DHT22;22662;47.412;9.742;2022-07-09T01:52:53;15.20;99.90
36670;DHT22;22662;47.412;9.742;2022-07-09T01:55:19;15.20;99.90
36670;DHT22;22662;47.412;9.742;2022-07-09T01:57:45;15.10;99.90
36670;DHT22;22662;47.412;9.742;2022-07-09T02:00:11;15.10;99.90
36670;DHT22;22662;47.412;9.742;2022-07-09T02:02:37;15.10;99.90
36670;DHT22;22662;47.412;9.742;2022-07-09T02:05:03;15.00;99.90
36670;DHT22;22662;47.412;9.742;2022-07-09T02:07:29;15.10;99.90
36670;DHT22;22662;47.412;9.742;2022-07-09T02:09:55;15.00;99.90
36670;DHT22;22662;47.412;9.742;2022-07-09T02:12:21;14.90;99.90
36670;DHT22;22662;47.412;9.742;2022-07-09T02:14:47;14.90;99.90
36670;DHT22;22662;47.412;9.742;2022-07-09T02:17:13;14.90;99.90
36670;DHT22;22662;47.412;9.742;2022-07-09T02:19:39;14.80;99.90
36670;DHT22;22662;47.412;9.742;2022-07-09T02:22:05;14.80;99.90
36670;DHT22;22662;47.412;9.742;2022-07-09T02:24:31;14.80;99.90
36670;DHT22;22662;47.412;9.742;2022-07-09T02:26:56;14.70;99.90
36670;DHT22;22662;47.412;9.742;2022-07-09T02:29:22;14.70;99.90
36670;DHT22;22662;47.412;9.742;2022-07-09T02:31:48;14.70;99.90
36670;DHT22;22662;47.412;9.742;2022-07-09T02:34:14;14.80;99.90
36670;DHT22;22662;47.412;9.742;2022-07-09T02:36:39;14.70;99.90
36670;DHT22;22662;47.412;9.742;2022-07-09T02:39:05;14.60;99.90
36670;DHT22;22662;47.412;9.742;2022-07-09T02:41:31;14.50;99.90
36670;DHT22;22662;47.412;9.742;2022-07-09T02:43:57;14.40;99.90
36670;DHT22;22662;47.412;9.742;2022-07-09T02:46:23;14.40;99.90
36670;DHT22;22662;47.412;9.742;2022-07-09T02:48:49;14.40;99.90
36670;DHT22;22662;47.412;9.742;2022-07-09T02:51:15;14.40;99.90
36670;DHT22;22662;47.412;9.742;2022-07-09T02:53:41;14.40;99.90
36670;DHT22;22662;47.412;9.742;2022-07-09T02:56:06;14.30;99.90
36670;DHT22;22662;47.412;9.742;2022-07-09T02:58:32;14.30;99.90
36670;DHT22;22662;47.412;9.742;2022-07-09T03:00:58;14.40;99.90
36670;DHT22;22662;47.412;9.742;2022-07-09T03:03:25;14.40;99.90
36670;DHT22;22662;47.412;9.742;2022-07-09T03:05:52;14.30;99.90
36670;DHT22;22662;47.412;9.742;2022-07-09T03:08:18;14.20;99.90
36670;DHT22;22662;47.412;9.742;2022-07-09T03:10:47;14.20;99.90
36670;DHT22;22662;47.412;9.742;2022-07-09T03:13:14;14.10;99.90
36670;DHT22;22662;47.412;9.742;2022-07-09T03:15:40;14.20;99.90
36670;DHT22;22662;47.412;9.742;2022-07-09T03:18:05;14.10;99.90
36670;DHT22;22662;47.412;9.742;2022-07-09T03:20:34;14.10;99.90
36670;DHT22;22662;47.412;9.742;2022-07-09T03:23:01;14.10;99.90
36670;DHT22;22662;47.412;9.742;2022-07-09T03:25:27;14.10;99.90
36670;DHT22;22662;47.412;9.742;2022-07-09T03:27:53;14.00;99.90
36670;DHT22;22662;47.412;9.742;2022-07-09T03:30:19;14.00;99.90
36670;DHT22;22662;47.412;9.742;2022-07-09T03:32:45;14.10;99.90
36670;DHT22;22662;47.412;9.742;2022-07-09T03:35:11;14.10;99.90
36670;DHT22;22662;47.412;9.742;2022-07-09T03:37:37;14.10;99.90
36670;DHT22;22662;47.412;9.742;2022-07-09T03:40:03;14.10;99.90
36670;DHT22;22662;47.412;9.742;2022-07-09T03:42:29;14.10;99.90
36670;DHT22;22662;47.412;9.742;2022-07-09T03:44:55;14.10;99.90
36670;DHT22;22662;47.412;9.742;2022-07-09T03:47:20;14.00;99.90
36670;DHT22;22662;47.412;9.742;2022-07-09T03:49:46;14.00;99.90
36670;DHT22;22662;47.412;9.742;2022-07-09T03:52:12;14.00;99.90
36670;DHT22;22662;47.412;9.742;2022-07-09T03:54:38;14.10;99.90
36670;DHT22;22662;47.412;9.742;2022-07-09T03:57:04;14.20;99.90
36670;DHT22;22662;47.412;9.742;2022-07-09T03:59:30;14.20;99.90
36670;DHT22;22662;47.412;9.742;2022-07-09T04:01:56;14.20;99.90
36670;DHT22;22662;47.412;9.742;2022-07-09T04:04:22;14.10;99.90
36670;DHT22;22662;47.412;9.742;2022-07-09T04:06:48;14.10;99.90
36670;DHT22;22662;47.412;9.742;2022-07-09T04:09:13;14.20;99.90
36670;DHT22;22662;47.412;9.742;2022-07-09T04:11:39;14.10;99.90
36670;DHT22;22662;47.412;9.742;2022-07-09T04:14:05;14.20;99.90
36670;DHT22;22662;47.412;9.742;2022-07-09T04:16:30;14.20;99.90
36670;DHT22;22662;47.412;9.742;2022-07-09T04:18:56;14.10;99.90
36670;DHT22;22662;47.412;9.742;2022-07-09T04:21:22;14.10;99.90
36670;DHT22;22662;47.412;9.742;2022-07-09T04:23:48;14.00;99.90
36670;DHT22;22662;47.412;9.742;2022-07-09T04:26:15;14.00;99.90
36670;DHT22;22662;47.412;9.742;2022-07-09T04:28:40;14.10;99.90
36670;DHT22;22662;47.412;9.742;2022-07-09T04:31:06;14.20;99.90
36670;DHT22;22662;47.412;9.742;2022-07-09T04:33:32;14.30;99.90
36670;DHT22;22662;47.412;9.742;2022-07-09T04:35:58;14.40;99.90
36670;DHT22;22662;47.412;9.742;2022-07-09T04:38:23;15.10;99.90
36670;DHT22;22662;47.412;9.742;2022-07-09T04:40:51;16.90;99.90
36670;DHT22;22662;47.412;9.742;2022-07-09T04:43:16;18.60;99.90
36670;DHT22;22662;47.412;9.742;2022-07-09T04:45:42;19.80;99.90
36670;DHT22;22662;47.412;9.742;2022-07-09T04:48:08;20.90;99.90
36670;DHT22;22662;47.412;9.742;2022-07-09T04:50:34;20.90;99.90
36670;DHT22;22662;47.412;9.742;2022-07-09T04:53:00;21.80;99.90
36670;DHT22;22662;47.412;9.742;2022-07-09T04:55:25;22.30;98.90
36670;DHT22;22662;47.412;9.742;2022-07-09T04:57:51;22.10;98.90
36670;DHT22;22662;47.412;9.742;2022-07-09T05:00:17;22.10;98.50
36670;DHT22;22662;47.412;9.742;2022-07-09T05:02:44;22.00;98.20
36670;DHT22;22662;47.412;9.742;2022-07-09T05:05:10;22.30;97.80
36670;DHT22;22662;47.412;9.742;2022-07-09T05:07:36;22.40;97.60
36670;DHT22;22662;47.412;9.742;2022-07-09T05:10:03;22.80;96.90
36670;DHT22;22662;47.412;9.742;2022-07-09T05:12:30;22.70;96.30
36670;DHT22;22662;47.412;9.742;2022-07-09T05:14:56;22.30;96.70
36670;DHT22;22662;47.412;9.742;2022-07-09T05:17:22;22.80;96.60
36670;DHT22;22662;47.412;9.742;2022-07-09T05:19:49;23.10;95.90
36670;DHT22;22662;47.412;9.742;2022-07-09T05:22:15;23.30;95.80
36670;DHT22;22662;47.412;9.742;2022-07-09T05:24:41;23.60;94.80
36670;DHT22;22662;47.412;9.742;2022-07-09T05:27:07;24.20;93.90
36670;DHT22;22662;47.412;9.742;2022-07-09T05:29:35;24.40;93.50
36670;DHT22;22662;47.412;9.742;2022-07-09T05:32:01;24.30;93.10
36670;DHT22;22662;47.412;9.742;2022-07-09T05:34:27;24.30;93.10
36670;DHT22;22662;47.412;9.742;2022-07-09T05:36:52;24.30;92.90
36670;DHT22;22662;47.412;9.742;2022-07-09T05:39:20;24.50;92.60
36670;DHT22;22662;47.412;9.742;2022-07-09T05:41:46;24.20;92.40
36670;DHT22;22662;47.412;9.742;2022-07-09T05:44:12;24.00;92.80
36670;DHT22;22662;47.412;9.742;2022-07-09T05:46:38;24.20;92.60
36670;DHT22;22662;47.412;9.742;2022-07-09T05:49:03;24.50;92.60
36670;DHT22;22662;47.412;9.742;2022-07-09T05:51:29;24.60;92.40
36670;DHT22;22662;47.412;9.742;2022-07-09T05:53:55;24.60;92.40
36670;DHT22;22662;47.412;9.742;2022-07-09T05:56:21;24.60;92.40
36670;DHT22;22662;47.412;9.742;2022-07-09T05:58:47;24.50;92.30
36670;DHT22;22662;47.412;9.742;2022-07-09T06:01:13;24.80;91.90
36670;DHT22;22662;47.412;9.742;2022-07-09T06:03:40;25.00;91.50
36670;DHT22;22662;47.412;9.742;2022-07-09T06:06:06;25.20;90.10
36670;DHT22;22662;47.412;9.742;2022-07-09T06:08:32;25.20;89.20
36670;DHT22;22662;47.412;9.742;2022-07-09T06:10:59;25.10;89.40
36670;DHT22;22662;47.412;9.742;2022-07-09T06:13:25;24.80;90.30
36670;DHT22;22662;47.412;9.742;2022-07-09T06:15:51;24.90;89.70
36670;DHT22;22662;47.412;9.742;2022-07-09T06:18:18;24.60;90.20
36670;DHT22;22662;47.412;9.742;2022-07-09T06:20:44;24.80;90.00
36670;DHT22;22662;47.412;9.742;2022-07-09T06:23:11;25.20;89.10
36670;DHT22;22662;47.412;9.742;2022-07-09T06:25:37;25.10;89.00
36670;DHT22;22662;47.412;9.742;2022-07-09T06:28:04;24.70;89.00
36670;DHT22;22662;47.412;9.742;2022-07-09T06:30:30;24.50;88.70
36670;DHT22;22662;47.412;9.742;2022-07-09T06:32:56;24.70;89.00
36670;DHT22;22662;47.412;9.742;2022-07-09T06:35:22;25.20;88.10
36670;DHT22;22662;47.412;9.742;2022-07-09T06:37:48;25.60;85.60
36670;DHT22;22662;47.412;9.742;2022-07-09T06:40:14;25.80;85.90
36670;DHT22;22662;47.412;9.742;2022-07-09T06:42:40;25.70;86.30
36670;DHT22;22662;47.412;9.742;2022-07-09T06:45:06;25.50;86.80
36670;DHT22;22662;47.412;9.742;2022-07-09T06:47:32;25.40;87.90
36670;DHT22;22662;47.412;9.742;2022-07-09T06:49:58;25.60;87.30
36670;DHT22;22662;47.412;9.742;2022-07-09T06:52:24;25.10;88.30
36670;DHT22;22662;47.412;9.742;2022-07-09T06:54:50;24.90;89.30
36670;DHT22;22662;47.412;9.742;2022-07-09T06:57:15;25.20;88.30
36670;DHT22;22662;47.412;9.742;2022-07-09T06:59:43;25.20;88.10
36670;DHT22;22662;47.412;9.742;2022-07-09T07:02:11;25.30;88.40
36670;DHT22;22662;47.412;9.742;2022-07-09T07:04:37;24.60;85.70
36670;DHT22;22662;47.412;9.742;2022-07-09T07:07:03;23.40;88.90
36670;DHT22;22662;47.412;9.742;2022-07-09T07:09:30;22.20;90.30
36670;DHT22;22662;47.412;9.742;2022-07-09T07:11:56;21.10;91.10
36670;DHT22;22662;47.412;9.742;2022-07-09T07:14:21;20.40;92.50
36670;DHT22;22662;47.412;9.742;2022-07-09T07:16:47;19.50;94.10
36670;DHT22;22662;47.412;9.742;2022-07-09T07:19:13;19.50;95.40
36670;DHT22;22662;47.412;9.742;2022-07-09T07:21:39;19.40;95.30
36670;DHT22;22662;47.412;9.742;2022-07-09T07:24:06;19.30;96.10
36670;DHT22;22662;47.412;9.742;2022-07-09T07:26:35;19.10;96.80
36670;DHT22;22662;47.412;9.742;2022-07-09T07:29:01;19.10;97.00
36670;DHT22;22662;47.412;9.742;2022-07-09T07:31:27;19.20;97.00
36670;DHT22;22662;47.412;9.742;2022-07-09T07:33:52;18.90;97.00
36670;DHT22;22662;47.412;9.742;2022-07-09T07:36:18;19.10;97.20
36670;DHT22;22662;47.412;9.742;2022-07-09T07:38:44;19.00;97.10
36670;DHT22;22662;47.412;9.742;2022-07-09T07:41:13;19.00;97.50
36670;DHT22;22662;47.412;9.742;2022-07-09T07:43:39;19.00;97.80
36670;DHT22;22662;47.412;9.742;2022-07-09T07:46:05;19.10;97.10
36670;DHT22;22662;47.412;9.742;2022-07-09T07:48:31;19.10;96.70
36670;DHT22;22662;47.412;9.742;2022-07-09T07:50:57;19.10;96.90
36670;DHT22;22662;47.412;9.742;2022-07-09T07:53:23;18.90;96.60
36670;DHT22;22662;47.412;9.742;2022-07-09T07:55:49;19.00;97.20
36670;DHT22;22662;47.412;9.742;2022-07-09T07:58:15;19.00;96.90
36670;DHT22;22662;47.412;9.742;2022-07-09T08:00:41;19.00;97.10
36670;DHT22;22662;47.412;9.742;2022-07-09T08:03:07;19.10;97.30
36670;DHT22;22662;47.412;9.742;2022-07-09T08:05:33;19.50;97.30
36670;DHT22;22662;47.412;9.742;2022-07-09T08:07:59;19.70;96.70
36670;DHT22;22662;47.412;9.742;2022-07-09T08:10:25;19.20;96.50
36670;DHT22;22662;47.412;9.742;2022-07-09T08:12:51;19.20;96.30
36670;DHT22;22662;47.412;9.742;2022-07-09T08:15:17;19.30;96.50
36670;DHT22;22662;47.412;9.742;2022-07-09T08:17:43;19.20;97.00
36670;DHT22;22662;47.412;9.742;2022-07-09T08:20:10;19.50;97.40
36670;DHT22;22662;47.412;9.742;2022-07-09T08:22:36;19.70;96.80
36670;DHT22;22662;47.412;9.742;2022-07-09T08:25:03;19.90;96.80
36670;DHT22;22662;47.412;9.742;2022-07-09T08:27:29;20.00;96.90
36670;DHT22;22662;47.412;9.742;2022-07-09T08:29:55;19.90;97.50
36670;DHT22;22662;47.412;9.742;2022-07-09T08:32:21;19.90;97.10
36670;DHT22;22662;47.412;9.742;2022-07-09T08:34:47;20.10;97.10
36670;DHT22;22662;47.412;9.742;2022-07-09T08:37:12;20.30;97.30
36670;DHT22;22662;47.412;9.742;2022-07-09T08:39:38;20.20;97.10
36670;DHT22;22662;47.412;9.742;2022-07-09T08:42:08;20.30;96.60
36670;DHT22;22662;47.412;9.742;2022-07-09T08:44:38;20.30;96.60
36670;DHT22;22662;47.412;9.742;2022-07-09T08:47:04;20.50;96.30
36670;DHT22;22662;47.412;9.742;2022-07-09T08:49:31;20.40;96.70
36670;DHT22;22662;47.412;9.742;2022-07-09T08:51:57;20.30;97.00
36670;DHT22;22662;47.412;9.742;2022-07-09T08:54:24;20.00;97.70
36670;DHT22;22662;47.412;9.742;2022-07-09T08:56:51;20.10;98.30
36670;DHT22;22662;47.412;9.742;2022-07-09T08:59:17;20.30;98.30
36670;DHT22;22662;47.412;9.742;2022-07-09T09:01:43;20.60;97.80
36670;DHT22;22662;47.412;9.742;2022-07-09T09:04:09;20.50;97.40
36670;DHT22;22662;47.412;9.742;2022-07-09T09:06:38;20.40;97.50
36670;DHT22;22662;47.412;9.742;2022-07-09T09:09:09;20.50;97.10
36670;DHT22;22662;47.412;9.742;2022-07-09T09:11:37;20.50;97.40
36670;DHT22;22662;47.412;9.742;2022-07-09T09:14:03;20.80;97.90
36670;DHT22;22662;47.412;9.742;2022-07-09T09:16:29;20.80;96.80
36670;DHT22;22662;47.412;9.742;2022-07-09T09:18:55;21.00;97.00
36670;DHT22;22662;47.412;9.742;2022-07-09T09:21:26;20.80;97.80
36670;DHT22;22662;47.412;9.742;2022-07-09T09:23:55;20.80;99.90
36670;DHT22;22662;47.412;9.742;2022-07-09T09:26:27;21.00;99.80
36670;DHT22;22662;47.412;9.742;2022-07-09T09:28:58;21.30;99.00
36670;DHT22;22662;47.412;9.742;2022-07-09T09:31:29;21.20;97.60
36670;DHT22;22662;47.412;9.742;2022-07-09T09:36:35;21.40;97.80
36670;DHT22;22662;47.412;9.742;2022-07-09T09:41:48;21.40;97.00
36670;DHT22;22662;47.412;9.742;2022-07-09T09:44:17;21.20;97.00
36670;DHT22;22662;47.412;9.742;2022-07-09T09:46:43;21.20;96.80
36670;DHT22;22662;47.412;9.742;2022-07-09T09:49:12;21.10;97.10
36670;DHT22;22662;47.412;9.742;2022-07-09T09:52:05;21.30;97.40
36670;DHT22;22662;47.412;9.742;2022-07-09T09:54:33;21.40;97.00
36670;DHT22;22662;47.412;9.742;2022-07-09T09:56:59;21.30;96.90
36670;DHT22;22662;47.412;9.742;2022-07-09T09:59:26;21.60;97.10
36670;DHT22;22662;47.412;9.742;2022-07-09T10:01:52;21.80;96.60
36670;DHT22;22662;47.412;9.742;2022-07-09T10:04:18;21.90;96.40
36670;DHT22;22662;47.412;9.742;2022-07-09T10:06:45;21.90;96.00
36670;DHT22;22662;47.412;9.742;2022-07-09T10:09:12;21.90;96.40
36670;DHT22;22662;47.412;9.742;2022-07-09T10:14:05;22.40;96.10
36670;DHT22;22662;47.412;9.742;2022-07-09T10:16:40;22.30;95.70
36670;DHT22;22662;47.412;9.742;2022-07-09T10:19:07;22.40;95.00
36670;DHT22;22662;47.412;9.742;2022-07-09T10:21:37;22.20;95.20
36670;DHT22;22662;47.412;9.742;2022-07-09T10:24:05;22.40;94.60
36670;DHT22;22662;47.412;9.742;2022-07-09T10:26:43;22.20;95.40
36670;DHT22;22662;47.412;9.742;2022-07-09T10:29:24;22.30;95.50
36670;DHT22;22662;47.412;9.742;2022-07-09T10:31:52;22.50;95.60
36670;DHT22;22662;47.412;9.742;2022-07-09T10:37:07;22.50;95.20
36670;DHT22;22662;47.412;9.742;2022-07-09T10:39:34;22.30;95.40
36670;DHT22;22662;47.412;9.742;2022-07-09T10:44:37;22.40;95.70
36670;DHT22;22662;47.412;9.742;2022-07-09T10:47:04;22.40;95.30
36670;DHT22;22662;47.412;9.742;2022-07-09T10:49:31;22.60;94.80
36670;DHT22;22662;47.412;9.742;2022-07-09T10:51:59;22.40;94.10
36670;DHT22;22662;47.412;9.742;2022-07-09T10:54:25;22.60;94.10
36670;DHT22;22662;47.412;9.742;2022-07-09T10:56:53;22.60;93.80
36670;DHT22;22662;47.412;9.742;2022-07-09T10:59:20;22.70;94.20
36670;DHT22;22662;47.412;9.742;2022-07-09T11:01:46;23.00;93.60
36670;DHT22;22662;47.412;9.742;2022-07-09T11:04:22;23.00;92.70
36670;DHT22;22662;47.412;9.742;2022-07-09T11:06:48;22.90;92.20
36670;DHT22;22662;47.412;9.742;2022-07-09T11:09:14;22.70;93.70
36670;DHT22;22662;47.412;9.742;2022-07-09T11:11:43;23.00;92.40
36670;DHT22;22662;47.412;9.742;2022-07-09T11:14:10;22.90;92.10
36670;DHT22;22662;47.412;9.742;2022-07-09T11:16:37;22.90;91.60
36670;DHT22;22662;47.412;9.742;2022-07-09T11:19:16;23.00;90.60
36670;DHT22;22662;47.412;9.742;2022-07-09T11:21:42;23.10;91.60
36670;DHT22;22662;47.412;9.742;2022-07-09T11:24:15;23.40;92.00
36670;DHT22;22662;47.412;9.742;2022-07-09T11:26:41;23.50;91.80
36670;DHT22;22662;47.412;9.742;2022-07-09T11:29:08;23.20;92.20
36670;DHT22;22662;47.412;9.742;2022-07-09T11:31:35;23.40;91.20
36670;DHT22;22662;47.412;9.742;2022-07-09T11:34:01;23.00;91.30
36670;DHT22;22662;47.412;9.742;2022-07-09T11:36:40;22.90;91.40
36670;DHT22;22662;47.412;9.742;2022-07-09T11:39:06;23.10;91.50
36670;DHT22;22662;47.412;9.742;2022-07-09T11:41:44;23.20;90.50
36670;DHT22;22662;47.412;9.742;2022-07-09T11:44:11;23.20;90.70
36670;DHT22;22662;47.412;9.742;2022-07-09T11:46:44;23.30;89.20
36670;DHT22;22662;47.412;9.742;2022-07-09T11:49:16;23.30;90.60
36670;DHT22;22662;47.412;9.742;2022-07-09T11:51:42;23.40;90.20
36670;DHT22;22662;47.412;9.742;2022-07-09T11:54:08;23.60;90.70
36670;DHT22;22662;47.412;9.742;2022-07-09T11:56:43;23.50;90.90
36670;DHT22;22662;47.412;9.742;2022-07-09T11:59:13;23.40;90.30
36670;DHT22;22662;47.412;9.742;2022-07-09T12:01:39;23.30;89.70
36670;DHT22;22662;47.412;9.742;2022-07-09T12:04:06;23.30;90.30
36670;DHT22;22662;47.412;9.742;2022-07-09T12:06:32;23.30;90.30
36670;DHT22;22662;47.412;9.742;2022-07-09T12:09:04;23.40;88.50
36670;DHT22;22662;47.412;9.742;2022-07-09T12:11:32;23.40;88.80
36670;DHT22;22662;47.412;9.742;2022-07-09T12:13:58;23.60;87.60
36670;DHT22;22662;47.412;9.742;2022-07-09T12:16:24;23.10;89.30
36670;DHT22;22662;47.412;9.742;2022-07-09T12:18:50;23.20;88.90
36670;DHT22;22662;47.412;9.742;2022-07-09T12:21:15;23.30;85.10
36670;DHT22;22662;47.412;9.742;2022-07-09T12:23:41;23.20;84.80
36670;DHT22;22662;47.412;9.742;2022-07-09T12:26:07;23.20;89.00
36670;DHT22;22662;47.412;9.742;2022-07-09T12:28:33;23.40;86.80
36670;DHT22;22662;47.412;9.742;2022-07-09T12:30:58;23.50;81.40
36670;DHT22;22662;47.412;9.742;2022-07-09T12:33:24;23.40;81.40
36670;DHT22;22662;47.412;9.742;2022-07-09T12:35:50;23.40;83.10
36670;DHT22;22662;47.412;9.742;2022-07-09T12:38:16;23.50;86.30
36670;DHT22;22662;47.412;9.742;2022-07-09T12:40:42;23.50;86.20
36670;DHT22;22662;47.412;9.742;2022-07-09T12:43:07;23.70;81.80
36670;DHT22;22662;47.412;9.742;2022-07-09T12:45:33;23.90;65.10
36670;DHT22;22662;47.412;9.742;2022-07-09T12:47:59;24.20;64.30
36670;DHT22;22662;47.412;9.742;2022-07-09T12:50:24;24.50;74.90
36670;DHT22;22662;47.412;9.742;2022-07-09T12:52:50;24.70;81.80
36670;DHT22;22662;47.412;9.742;2022-07-09T12:55:17;24.70;75.30
36670;DHT22;22662;47.412;9.742;2022-07-09T12:57:43;24.80;79.00
36670;DHT22;22662;47.412;9.742;2022-07-09T13:00:09;24.40;79.00
36670;DHT22;22662;47.412;9.742;2022-07-09T13:02:35;24.40;80.00
36670;DHT22;22662;47.412;9.742;2022-07-09T13:05:01;24.50;80.00
36670;DHT22;22662;47.412;9.742;2022-07-09T13:07:27;24.20;81.60
36670;DHT22;22662;47.412;9.742;2022-07-09T13:09:54;24.10;81.70
36670;DHT22;22662;47.412;9.742;2022-07-09T13:12:20;24.20;84.70
36670;DHT22;22662;47.412;9.742;2022-07-09T13:14:45;24.20;84.80
36670;DHT22;22662;47.412;9.742;2022-07-09T13:17:11;24.60;81.80
36670;DHT22;22662;47.412;9.742;2022-07-09T13:19:37;24.40;83.40
36670;DHT22;22662;47.412;9.742;2022-07-09T13:22:03;24.10;85.30
36670;DHT22;22662;47.412;9.742;2022-07-09T13:24:29;23.90;85.20
36670;DHT22;22662;47.412;9.742;2022-07-09T13:26:54;23.90;83.70
36670;DHT22;22662;47.412;9.742;2022-07-09T13:29:20;23.90;85.20
36670;DHT22;22662;47.412;9.742;2022-07-09T13:31:46;24.20;84.80
36670;DHT22;22662;47.412;9.742;2022-07-09T13:34:12;24.20;86.10
36670;DHT22;22662;47.412;9.742;2022-07-09T13:36:38;24.20;85.70
36670;DHT22;22662;47.412;9.742;2022-07-09T13:39:04;24.20;85.50
36670;DHT22;22662;47.412;9.742;2022-07-09T13:41:30;24.30;84.90
36670;DHT22;22662;47.412;9.742;2022-07-09T13:43:55;24.50;86.80
36670;DHT22;22662;47.412;9.742;2022-07-09T13:46:21;24.40;83.90
36670;DHT22;22662;47.412;9.742;2022-07-09T13:48:47;24.60;84.40
36670;DHT22;22662;47.412;9.742;2022-07-09T13:51:13;24.20;85.30
36670;DHT22;22662;47.412;9.742;2022-07-09T13:53:38;24.20;86.50
36670;DHT22;22662;47.412;9.742;2022-07-09T13:56:04;24.10;85.60
36670;DHT22;22662;47.412;9.742;2022-07-09T13:58:30;24.30;86.50
36670;DHT22;22662;47.412;9.742;2022-07-09T14:00:56;24.10;86.50
36670;DHT22;22662;47.412;9.742;2022-07-09T14:03:22;24.10;86.00
36670;DHT22;22662;47.412;9.742;2022-07-09T14:05:48;24.10;85.20
36670;DHT22;22662;47.412;9.742;2022-07-09T14:08:14;24.00;86.10
36670;DHT22;22662;47.412;9.742;2022-07-09T14:10:39;24.30;85.30
36670;DHT22;22662;47.412;9.742;2022-07-09T14:13:05;24.50;84.20
36670;DHT22;22662;47.412;9.742;2022-07-09T14:15:31;24.20;82.60
36670;DHT22;22662;47.412;9.742;2022-07-09T14:17:59;24.00;82.70
36670;DHT22;22662;47.412;9.742;2022-07-09T14:20:25;24.20;81.90
36670;DHT22;22662;47.412;9.742;2022-07-09T14:22:51;24.20;83.60
36670;DHT22;22662;47.412;9.742;2022-07-09T14:25:17;24.50;82.30
36670;DHT22;22662;47.412;9.742;2022-07-09T14:27:43;24.60;81.10
36670;DHT22;22662;47.412;9.742;2022-07-09T14:30:09;24.30;80.20
36670;DHT22;22662;47.412;9.742;2022-07-09T14:32:35;24.30;80.10
36670;DHT22;22662;47.412;9.742;2022-07-09T14:35:01;24.30;80.80
36670;DHT22;22662;47.412;9.742;2022-07-09T14:37:27;24.60;80.80
36670;DHT22;22662;47.412;9.742;2022-07-09T14:39:53;24.50;80.10
36670;DHT22;22662;47.412;9.742;2022-07-09T14:42:19;24.70;80.50
36670;DHT22;22662;47.412;9.742;2022-07-09T14:44:45;25.00;79.30
36670;DHT22;22662;47.412;9.742;2022-07-09T14:47:11;24.90;78.40
36670;DHT22;22662;47.412;9.742;2022-07-09T14:49:37;24.80;77.70
36670;DHT22;22662;47.412;9.742;2022-07-09T14:52:03;24.60;79.70
36670;DHT22;22662;47.412;9.742;2022-07-09T14:54:29;24.40;79.60
36670;DHT22;22662;47.412;9.742;2022-07-09T14:56:54;24.40;79.60
36670;DHT22;22662;47.412;9.742;2022-07-09T14:59:20;24.20;81.20
36670;DHT22;22662;47.412;9.742;2022-07-09T15:01:47;24.20;80.40
36670;DHT22;22662;47.412;9.742;2022-07-09T15:04:14;24.60;80.90
36670;DHT22;22662;47.412;9.742;2022-07-09T15:06:41;24.60;79.80
36670;DHT22;22662;47.412;9.742;2022-07-09T15:09:07;24.80;79.40
36670;DHT22;22662;47.412;9.742;2022-07-09T15:11:33;24.90;79.40
36670;DHT22;22662;47.412;9.742;2022-07-09T15:13:58;25.00;81.00
36670;DHT22;22662;47.412;9.742;2022-07-09T15:16:24;24.80;79.20
36670;DHT22;22662;47.412;9.742;2022-07-09T15:18:50;24.80;79.40
36670;DHT22;22662;47.412;9.742;2022-07-09T15:21:16;24.80;78.90
36670;DHT22;22662;47.412;9.742;2022-07-09T15:23:42;24.80;79.00
36670;DHT22;22662;47.412;9.742;2022-07-09T15:26:08;25.00;77.90
36670;DHT22;22662;47.412;9.742;2022-07-09T15:28:34;25.00;79.00
36670;DHT22;22662;47.412;9.742;2022-07-09T15:31:03;25.20;77.20
36670;DHT22;22662;47.412;9.742;2022-07-09T15:33:29;25.30;77.90
36670;DHT22;22662;47.412;9.742;2022-07-09T15:35:55;25.40;77.80
36670;DHT22;22662;47.412;9.742;2022-07-09T15:38:20;25.20;78.10